Time;durP1;ratioP1;P1;durP2;ratioP2;P2;SDS_P1;SDS_P2;PMS_P1;PMS_P2;Temp;Humidity;BMP_temperature;BMP_pressure;BME280_temperature;BME280_humidity;BME280_pressure;Samples;Min_cycle;Max_cycle;Signal;HPM_P1;HPM_P2
2021/11/23 01:04:51;;;;;;;;;;;;;;;;;;;;;
2021/11/23 02:02:52;;;;;;;25.63;14.50;;;;;;;3.77;100.00;103018.25;2613879;36;21414;-69
2021/11/23 02:05:44;;;;;;;17.92;12.65;;;;;;;3.83;100.00;103015.41;2611258;36;20042;-69
2021/11/23 02:10:53;;;;;;;24.45;13.80;;;;;;;3.87;100.00;103008.19;2610206;36;20049;-70
2021/11/23 02:13:21;;;;;;;23.55;13.63;;;;;;;3.92;100.00;103018.78;2610940;36;20041;-71
2021/11/23 02:19:00;;;;;;;25.00;13.00;;;;;;;3.93;100.00;103009.84;2611419;36;20059;-70
2021/11/23 02:21:52;;;;;;;20.33;12.00;;;;;;;3.95;100.00;103013.34;2611394;36;20064;-70
2021/11/23 02:24:20;;;;;;;18.38;12.02;;;;;;;4.02;100.00;103009.63;2610517;36;20137;-70
2021/11/23 02:26:51;;;;;;;21.95;12.77;;;;;;;4.04;100.00;103005.13;2610885;36;20074;-69
2021/11/23 02:29:21;;;;;;;24.40;11.85;;;;;;;4.13;100.00;103010.19;2611523;36;20030;-70
2021/11/23 02:32:25;;;;;;;18.80;10.90;;;;;;;4.09;100.00;103008.50;2611207;36;20057;-70
2021/11/23 02:34:53;;;;;;;18.17;11.23;;;;;;;4.15;100.00;102999.47;2611867;36;20053;-68
2021/11/23 02:40:23;;;;;;;19.38;11.25;;;;;;;4.25;100.00;103000.97;2613870;36;20121;-69
2021/11/23 02:42:54;;;;;;;17.23;10.85;;;;;;;4.25;100.00;103000.97;2611072;36;20630;-70
2021/11/23 02:45:57;;;;;;;22.08;11.75;;;;;;;4.24;100.00;103003.69;2611406;36;20030;-71
2021/11/23 02:48:49;;;;;;;25.10;11.65;;;;;;;4.26;100.00;102993.88;2611657;36;20038;-69
2021/11/23 02:57:19;;;;;;;20.60;11.23;;;;;;;4.31;100.00;102986.63;2610501;31;20030;-69
2021/11/23 02:59:50;;;;;;;21.48;10.45;;;;;;;4.41;100.00;102993.44;2611365;36;20045;-69
2021/11/23 03:05:45;;;;;;;18.63;10.73;;;;;;;4.35;100.00;102989.16;2607104;36;20034;-70
2021/11/23 03:11:12;;;;;;;17.42;10.75;;;;;;;4.43;100.00;102986.28;2606800;36;20427;-70
2021/11/23 03:14:09;;;;;;;17.02;10.35;;;;;;;4.46;100.00;102982.63;2607687;36;20145;-69
2021/11/23 03:19:21;;;;;;;23.17;10.75;;;;;;;4.44;100.00;102965.81;2607152;36;20031;-69
2021/11/23 03:21:49;;;;;;;18.83;10.70;;;;;;;4.49;100.00;102967.44;2606002;36;20038;-69
2021/11/23 03:24:54;;;;;;;17.05;9.90;;;;;;;4.52;100.00;102967.34;2607805;36;20584;-68
2021/11/23 03:27:22;;;;;;;18.10;10.10;;;;;;;4.55;100.00;102967.25;2608237;31;20030;-70
2021/11/23 03:32:41;;;;;;;17.77;9.60;;;;;;;4.66;100.00;102968.72;2624613;36;20111;-69
2021/11/23 03:40:56;;;;;;;17.27;10.90;;;;;;;4.75;100.00;102979.13;2623766;36;20046;-70
2021/11/23 03:43:25;;;;;;;19.02;9.35;;;;;;;4.74;100.00;102961.34;2606408;36;20126;-70
2021/11/23 03:46:22;;;;;;;20.02;9.90;;;;;;;4.81;100.00;102962.91;2607582;36;20099;-70
2021/11/23 03:48:52;;;;;;;18.58;9.52;;;;;;;4.79;100.00;102959.44;2607744;36;20501;-68
2021/11/23 03:51:29;;;;;;;19.73;9.52;;;;;;;4.73;100.00;102954.28;2606483;36;20056;-68
2021/11/23 03:53:57;;;;;;;19.25;9.40;;;;;;;4.76;100.00;102959.53;2606825;36;20220;-70
2021/11/23 03:56:49;;;;;;;16.17;8.93;;;;;;;4.79;100.00;102972.78;2607283;36;20049;-68
2021/11/23 03:59:48;;;;;;;15.88;8.45;;;;;;;4.88;100.00;102959.13;2607512;36;20066;-69
2021/11/23 04:07:34;;;;;;;16.10;8.60;;;;;;;4.91;100.00;102952.84;2605731;36;20038;-69
2021/11/23 04:10:25;;;;;;;21.48;9.45;;;;;;;4.90;100.00;102951.97;2608244;36;20060;-68
2021/11/23 04:15:35;;;;;;;19.63;9.52;;;;;;;5.01;100.00;102962.31;2607011;36;20477;-70
2021/11/23 04:18:03;;;;;;;15.80;8.73;;;;;;;4.96;100.00;102958.03;2606980;36;20035;-69
2021/11/23 04:23:37;;;;;;;15.15;8.20;;;;;;;4.97;100.00;102957.13;2607188;36;20035;-69
2021/11/23 04:26:37;;;;;;;16.73;9.38;;;;;;;5.01;100.00;102958.78;2606781;36;20431;-69
2021/11/23 04:32:24;;;;;;;18.80;8.75;;;;;;;5.04;100.00;102954.19;2606447;36;20022;-69
2021/11/23 04:34:52;;;;;;;17.98;9.38;;;;;;;5.06;100.00;102957.72;2607189;36;20037;-71
2021/11/23 04:40:43;;;;;;;18.15;9.85;;;;;;;5.05;100.00;102944.38;2607399;31;20031;-68
2021/11/23 04:43:12;;;;;;;18.92;9.00;;;;;;;5.03;100.00;102944.44;2607782;36;20121;-69
2021/11/23 04:45:40;;;;;;;16.33;10.10;;;;;;;5.03;100.00;102948.91;2607128;36;20054;-70
2021/11/23 04:48:19;;;;;;;21.05;10.05;;;;;;;5.04;100.00;102945.34;2607339;36;20077;-69
2021/11/23 04:51:11;;;;;;;17.80;8.83;;;;;;;5.06;100.00;102951.47;2607541;36;20045;-69
2021/11/23 05:02:56;;;;;;;23.92;9.80;;;;;;;5.07;100.00;102947.91;2605878;36;20651;-70
2021/11/23 05:05:25;;;;;;;18.58;9.55;;;;;;;4.98;100.00;102942.88;2604774;36;20534;-71
2021/11/23 05:13:45;;;;;;;18.70;9.25;;;;;;;5.17;100.00;102936.00;2605197;31;20031;-70
2021/11/23 05:16:41;;;;;;;14.07;9.73;;;;;;;5.16;100.00;102936.06;2604675;47;20055;-69
2021/11/23 05:22:11;;;;;;;19.50;8.80;;;;;;;5.10;100.00;102947.81;2605095;36;20034;-70
2021/11/23 05:24:43;;;;;;;15.43;8.80;;;;;;;5.18;100.00;102935.09;2607781;36;20066;-70
2021/11/23 05:29:57;;;;;;;15.60;8.85;;;;;;;5.17;100.00;102944.00;2606318;31;20041;-70
2021/11/23 05:32:25;;;;;;;17.42;9.43;;;;;;;5.19;100.00;102947.50;2607262;36;20054;-69
2021/11/23 05:34:54;;;;;;;13.30;8.65;;;;;;;5.30;100.00;102949.84;2607473;36;20053;-70
2021/11/23 05:37:22;;;;;;;20.35;9.75;;;;;;;5.34;100.00;102948.78;2607474;36;20061;-71
2021/11/23 05:40:06;;;;;;;18.65;9.95;;;;;;;5.36;100.00;102949.63;2607800;36;20622;-70
2021/11/23 05:43:13;;;;;;;16.40;8.43;;;;;;;5.46;100.00;102950.19;2607152;31;20065;-71
2021/11/23 05:46:14;;;;;;;17.85;8.60;;;;;;;5.48;100.00;102944.78;2607206;36;20602;-70
2021/11/23 05:48:48;;;;;;;18.10;9.85;;;;;;;5.57;100.00;102947.16;2607494;36;20049;-70
2021/11/23 05:51:23;;;;;;;18.00;10.25;;;;;;;5.68;100.00;102939.63;2606911;36;20700;-71
2021/11/23 05:53:52;;;;;;;21.38;10.35;;;;;;;5.63;100.00;102952.28;2607324;31;20601;-70
2021/11/23 05:56:23;;;;;;;20.63;10.00;;;;;;;5.66;100.00;102954.84;2607079;36;20051;-71
2021/11/23 05:58:52;;;;;;;23.80;10.93;;;;;;;5.69;100.00;102946.72;2607057;36;20046;-70
2021/11/23 06:04:27;;;;;;;20.63;11.45;;;;;;;5.78;100.00;102942.88;2604932;36;20038;-69
2021/11/23 06:07:03;;;;;;;24.23;11.70;;;;;;;5.79;100.00;102941.94;2606385;31;20525;-70
2021/11/23 06:09:43;;;;;;;23.45;12.45;;;;;;;5.79;100.00;102942.81;2606956;31;20594;-70
2021/11/23 06:12:35;;;;;;;27.13;13.02;;;;;;;5.88;100.00;102941.63;2606442;36;20031;-70
2021/11/23 06:18:10;;;;;;;27.70;12.80;;;;;;;5.91;100.00;102944.19;2605426;36;20041;-69
2021/11/23 06:20:38;;;;;;;22.33;12.43;;;;;;;6.03;100.00;102939.38;2607287;36;20514;-69
2021/11/23 06:23:34;;;;;;;27.42;13.07;;;;;;;6.01;100.00;102949.22;2606169;31;20053;-69
2021/11/23 06:26:05;;;;;;;31.88;13.48;;;;;;;6.04;100.00;102949.16;2606677;36;20038;-70
2021/11/23 06:28:34;;;;;;;22.90;12.95;;;;;;;6.08;100.00;102951.66;2607024;36;20045;-69
2021/11/23 06:31:02;;;;;;;27.08;14.00;;;;;;;6.13;100.00;102956.81;2605172;31;20439;-71
2021/11/23 06:33:33;;;;;;;32.70;14.65;;;;;;;6.16;100.00;102954.03;2598144;36;20057;-69
2021/11/23 06:36:01;;;;;;;28.13;15.30;;;;;;;6.19;100.00;102961.94;2606890;36;20077;-70
2021/11/23 06:38:37;;;;;;;26.15;14.43;;;;;;;6.19;100.00;102961.06;2606869;36;20042;-70
2021/11/23 06:41:05;;;;;;;25.65;13.85;;;;;;;6.20;100.00;102961.03;2607816;36;20054;-70
2021/11/23 06:43:40;;;;;;;32.55;14.50;;;;;;;6.22;100.00;102967.16;2606880;36;20122;-70
2021/11/23 06:46:09;;;;;;;28.95;14.50;;;;;;;6.24;100.00;102970.69;2607685;36;20709;-71
2021/11/23 06:48:42;;;;;;;37.33;15.18;;;;;;;6.27;100.00;102980.38;2608136;36;20129;-70
2021/11/23 06:51:13;;;;;;;30.15;14.00;;;;;;;6.27;100.00;102981.25;2606958;36;20046;-71
2021/11/23 06:53:41;;;;;;;25.27;13.40;;;;;;;6.31;100.00;102979.34;2607829;36;20371;-69
2021/11/23 06:56:09;;;;;;;26.42;14.38;;;;;;;6.31;100.00;102971.31;2608198;36;20435;-69
2021/11/23 06:58:38;;;;;;;29.45;14.77;;;;;;;6.19;100.00;102966.44;2608377;36;20030;-69
2021/11/23 07:01:06;;;;;;;32.22;14.63;;;;;;;6.19;100.00;102967.28;2607215;36;20031;-68
2021/11/23 07:03:34;;;;;;;35.60;16.33;;;;;;;6.27;100.00;102975.91;2608305;36;20470;-68
2021/11/23 07:06:11;;;;;;;35.58;16.17;;;;;;;6.30;100.00;102972.22;2607110;36;20138;-68
2021/11/23 07:08:39;;;;;;;29.27;15.40;;;;;;;6.40;100.00;102978.13;2607123;36;20672;-68
2021/11/23 07:13:57;;;;;;;31.05;15.25;;;;;;;6.44;100.00;102982.44;2606590;32;21719;-68
2021/11/23 07:16:27;;;;;;;32.60;14.70;;;;;;;6.47;100.00;102985.00;2606011;36;20742;-69
2021/11/23 07:18:56;;;;;;;32.10;15.43;;;;;;;6.44;100.00;102987.78;2606505;36;20129;-70
2021/11/23 07:21:26;;;;;;;23.23;13.93;;;;;;;6.48;100.00;102987.63;2606398;36;20031;-70
2021/11/23 07:23:56;;;;;;;31.00;15.57;;;;;;;6.52;100.00;102990.19;2604618;36;20122;-70
2021/11/23 07:26:24;;;;;;;24.52;13.43;;;;;;;6.56;100.00;102992.69;2604968;31;20145;-68
2021/11/23 07:28:53;;;;;;;28.80;14.15;;;;;;;6.56;100.00;103002.50;2606936;36;20064;-69
2021/11/23 07:31:21;;;;;;;30.90;14.40;;;;;;;6.58;100.00;102988.16;2607313;36;20154;-69
2021/11/23 07:33:49;;;;;;;29.48;14.65;;;;;;;6.60;100.00;102999.66;2607699;36;20077;-69
2021/11/23 07:36:19;;;;;;;28.13;14.13;;;;;;;6.66;100.00;103002.09;2607932;36;20041;-68
2021/11/23 07:38:51;;;;;;;33.33;15.77;;;;;;;6.65;100.00;103013.75;2608070;36;20037;-69
2021/11/23 07:41:19;;;;;;;38.30;15.25;;;;;;;6.64;100.00;103019.13;2606744;36;20065;-71
2021/11/23 07:43:48;;;;;;;28.60;14.27;;;;;;;6.67;100.00;103008.34;2607553;31;20035;-68
2021/11/23 07:46:32;;;;;;;31.80;14.93;;;;;;;6.70;100.00;103020.72;2607388;36;20121;-68
2021/11/23 07:49:00;;;;;;;31.50;14.70;;;;;;;6.64;100.00;103012.00;2607609;36;20039;-69
2021/11/23 07:51:29;;;;;;;27.45;14.02;;;;;;;6.68;100.00;103019.91;2608181;31;20121;-70
2021/11/23 07:56:38;;;;;;;23.20;13.30;;;;;;;6.50;100.00;103019.66;2613209;36;20178;-69
2021/11/23 07:59:07;;;;;;;36.22;13.65;;;;;;;6.36;100.00;103021.97;2607797;36;20053;-68
2021/11/23 08:01:36;;;;;;;34.90;13.82;;;;;;;6.28;100.00;103014.22;2607155;31;20626;-70
2021/11/23 08:04:04;;;;;;;24.73;12.88;;;;;;;6.20;100.00;103032.31;2605749;31;20046;-70
2021/11/23 08:06:32;;;;;;;29.02;12.70;;;;;;;6.12;100.00;103020.13;2607103;36;20046;-70
2021/11/23 08:09:01;;;;;;;20.88;12.13;;;;;;;5.99;100.00;103023.25;2607078;36;20130;-70
2021/11/23 08:11:31;;;;;;;28.93;12.40;;;;;;;5.92;100.00;103030.59;2607734;36;20034;-68
2021/11/23 08:14:00;;;;;;;20.70;11.73;;;;;;;6.01;100.00;103026.75;2606875;36;20065;-71
2021/11/23 08:16:29;;;;;;;29.88;12.00;;;;;;;5.99;100.00;103028.59;2606654;36;20039;-70
2021/11/23 08:18:57;;;;;;;19.38;11.18;;;;;;;6.02;100.00;103037.41;2607666;36;20122;-70
2021/11/23 08:21:29;;;;;;;24.67;12.40;;;;;;;5.91;100.00;103027.03;2606797;36;20570;-72
2021/11/23 08:23:57;;;;;;;24.10;12.15;;;;;;;5.97;100.00;103026.84;2606647;36;20042;-70
2021/11/23 08:26:26;;;;;;;29.80;12.77;;;;;;;6.00;100.00;103033.91;2625228;36;20583;-70
2021/11/23 08:28:57;;;;;;;23.05;12.40;;;;;;;6.03;100.00;103035.59;2607229;36;20034;-70
2021/11/23 08:31:25;;;;;;;29.23;13.57;;;;;;;6.09;100.00;103028.22;2607828;36;20042;-70
2021/11/23 08:33:53;;;;;;;23.17;12.43;;;;;;;6.19;100.00;103038.63;2607309;36;20035;-70
2021/11/23 08:36:22;;;;;;;24.25;12.77;;;;;;;6.34;100.00;103039.88;2606649;36;20146;-70
2021/11/23 08:38:50;;;;;;;20.95;12.60;;;;;;;6.45;100.00;103043.03;2607324;36;20153;-71
2021/11/23 08:41:18;;;;;;;28.77;13.60;;;;;;;6.62;100.00;103034.38;2607768;36;20034;-70
2021/11/23 08:43:46;;;;;;;27.35;13.23;;;;;;;6.68;100.00;103046.66;2607748;36;20092;-71
2021/11/23 08:46:17;;;;;;;24.75;12.48;;;;;;;6.78;100.00;103040.91;2606779;36;20154;-72
2021/11/23 08:48:46;;;;;;;24.63;13.57;;;;;;;6.92;100.00;103045.75;2607612;36;20117;-71
2021/11/23 08:51:21;;;;;;;25.27;13.02;;;;;;;6.96;100.00;103043.81;2607377;36;20056;-70
2021/11/23 08:53:51;;;;;;;22.48;12.07;;;;;;;7.08;100.00;103047.84;2606516;31;20160;-70
2021/11/23 08:56:19;;;;;;;;;;;;;;;7.17;100.00;103045.69;2607990;36;20568;-70
2021/11/23 08:58:51;;;;;;;24.88;12.48;;;;;;;7.14;100.00;103047.59;2606519;36;20384;-72
2021/11/23 09:01:25;;;;;;;21.30;10.88;;;;;;;7.26;100.00;103047.13;2608109;36;20456;-72
2021/11/23 09:03:55;;;;;;;21.58;10.32;;;;;;;7.42;100.00;103047.41;2608504;36;20065;-70
2021/11/23 09:06:26;;;;;;;20.73;10.63;;;;;;;7.59;100.00;103053.88;2607141;36;20035;-70
2021/11/23 09:08:58;;;;;;;21.58;11.90;;;;;;;7.62;100.00;103049.25;2607662;36;20042;-69
2021/11/23 09:11:28;;;;;;;21.30;11.73;;;;;;;7.79;100.00;103055.72;2608062;36;20034;-72
2021/11/23 09:13:56;;;;;;;26.02;12.68;;;;;;;7.77;100.00;103057.59;2607565;36;20129;-70
2021/11/23 09:16:27;;;;;;;28.70;14.40;;;;;;;7.79;100.00;103064.66;2607440;36;20039;-71
2021/11/23 09:18:55;;;;;;;27.00;13.40;;;;;;;7.82;100.00;103051.09;2608293;36;20042;-69
2021/11/23 09:21:26;;;;;;;31.00;14.55;;;;;;;7.93;100.00;103049.78;2607515;36;20065;-68
2021/11/23 09:23:55;;;;;;;24.27;14.65;;;;;;;7.95;100.00;103059.50;2607786;36;20030;-70
2021/11/23 09:26:24;;;;;;;23.50;14.57;;;;;;;8.01;100.00;103056.56;2607282;36;20038;-68
2021/11/23 09:28:52;;;;;;;25.80;13.48;;;;;;;8.05;100.00;103057.28;2607508;36;20335;-68
2021/11/23 09:31:21;;;;;;;25.63;13.13;;;;;;;8.10;100.00;103051.72;2603844;36;20166;-70
2021/11/23 09:33:52;;;;;;;24.02;12.25;;;;;;;8.10;100.00;103058.00;2601574;36;20034;-69
2021/11/23 09:36:21;;;;;;;28.40;13.38;;;;;;;8.16;100.00;103052.34;2607142;36;20146;-69
2021/11/23 09:38:49;;;;;;;31.10;13.60;;;;;;;8.25;100.00;103059.13;2607506;36;20122;-71
2021/11/23 09:41:17;;;;;;;29.85;13.23;;;;;;;8.37;100.00;103052.34;2597898;36;20045;-71
2021/11/23 09:43:46;;;;;;;24.42;13.05;;;;;;;8.60;100.00;103051.38;2607547;36;20153;-69
2021/11/23 09:46:14;;;;;;;21.67;11.80;;;;;;;8.72;100.00;103058.84;2607865;36;20038;-69
2021/11/23 09:48:44;;;;;;;24.63;9.45;;;;;;;8.57;100.00;103059.56;2607329;36;20065;-71
2021/11/23 09:51:24;;;;;;;18.80;8.82;;;;;;;8.59;100.00;103049.63;2607303;36;20066;-71
2021/11/23 09:53:52;;;;;;;16.63;8.25;;;;;;;8.63;100.00;103051.22;2607789;36;20030;-69
2021/11/23 09:56:21;;;;;;;20.73;9.55;;;;;;;8.86;100.00;103060.94;2607605;36;20061;-69
2021/11/23 09:58:55;;;;;;;25.73;10.35;;;;;;;9.01;100.00;103058.44;2607830;36;20096;-69
2021/11/23 10:01:25;;;;;;;17.60;9.80;;;;;;;9.09;100.00;103064.34;2607786;36;20038;-70
2021/11/23 10:03:54;;;;;;;20.38;9.75;;;;;;;9.25;100.00;103059.13;2608049;36;20034;-69
2021/11/23 10:06:26;;;;;;;;;;;;;;;9.22;100.00;103061.97;2607671;36;20551;-69
2021/11/23 10:08:56;;;;;;;19.95;9.18;;;;;;;9.14;100.00;103058.75;2607370;36;20439;-69
2021/11/23 10:11:27;;;;;;;15.07;8.13;;;;;;;9.08;100.00;103060.78;2607886;36;20125;-68
2021/11/23 10:13:58;;;;;;;17.55;9.45;;;;;;;9.16;100.00;103049.69;2608514;36;20150;-71
2021/11/23 10:16:38;;;;;;;16.48;9.10;;;;;;;9.12;100.00;103067.75;2609188;36;20045;-69
2021/11/23 10:19:09;;;;;;;15.75;8.65;;;;;;;9.08;100.00;103060.78;2609938;36;20181;-69
2021/11/23 10:21:50;;;;;;;17.63;8.75;;;;;;;9.26;100.00;103060.84;2608584;36;20434;-70
2021/11/23 10:24:21;;;;;;;12.82;7.05;;;;;;;9.35;100.00;103057.72;2607920;36;20030;-69
2021/11/23 10:26:51;;;;;;;13.88;5.47;;;;;;;9.32;100.00;103052.50;2608731;36;20077;-69
2021/11/23 10:29:20;;;;;;;8.50;4.63;;;;;;;9.31;100.00;103056.13;2608733;31;20488;-70
2021/11/23 10:31:49;;;;;;;9.57;3.95;;;;;;;9.26;100.00;103055.47;2608549;36;20639;-71
2021/11/23 10:34:20;;;;;;;10.82;3.53;;;;;;;9.21;100.00;103049.44;2610162;36;20133;-70
2021/11/23 10:36:52;;;;;;;7.63;2.88;;;;;;;9.22;100.00;103052.06;2605970;36;20080;-68
2021/11/23 10:39:22;;;;;;;6.75;2.58;;;;;;;9.28;100.00;103058.97;2608297;36;20126;-69
2021/11/23 10:41:53;;;;;;;6.72;2.05;;;;;;;9.29;100.00;103042.78;2607966;36;20153;-70
2021/11/23 10:44:23;;;;;;;8.48;2.10;;;;;;;9.22;100.00;103040.47;2608155;36;20163;-70
2021/11/23 10:46:55;;;;;;;4.40;1.67;;;;;;;9.38;100.00;103035.19;2608289;36;20579;-72
2021/11/23 10:49:31;;;;;;;6.70;1.80;;;;;;;9.49;100.00;103032.00;2607628;36;20030;-70
2021/11/23 10:52:03;;;;;;;6.15;1.50;;;;;;;9.59;100.00;103033.28;2607536;36;20118;-68
2021/11/23 10:54:33;;;;;;;7.65;1.70;;;;;;;9.60;100.00;103029.66;2607404;36;20171;-70
2021/11/23 10:57:04;;;;;;;7.10;1.58;;;;;;;9.71;100.00;103032.66;2608204;36;20060;-70
2021/11/23 10:59:34;;;;;;;4.07;1.50;;;;;;;9.76;100.00;103029.72;2608041;36;20031;-69
2021/11/23 11:02:03;;;;;;;5.25;1.77;;;;;;;9.83;100.00;103020.41;2608067;36;20042;-69
2021/11/23 11:04:35;;;;;;;;;;;;;;;9.86;100.00;103014.88;2608691;31;20651;-69
2021/11/23 11:07:07;;;;;;;5.95;1.75;;;;;;;9.95;100.00;103013.53;2607347;36;19950;-70
2021/11/23 11:09:36;;;;;;;4.63;1.55;;;;;;;9.96;100.00;103012.59;2606482;36;20046;-68
2021/11/23 11:12:06;;;;;;;7.38;2.20;;;;;;;10.09;100.00;103013.69;2606914;36;20030;-70
2021/11/23 11:14:38;;;;;;;6.05;1.50;;;;;;;9.98;100.00;103013.38;2608192;36;20598;-70
2021/11/23 11:17:07;;;;;;;3.70;1.50;;;;;;;9.94;100.00;103011.81;2607171;36;20045;-70
2021/11/23 11:19:46;;;;;;;;;;;;;;;9.92;100.00;103011.00;2607882;36;20591;-70
2021/11/23 11:22:17;;;;;;;3.67;1.30;;;;;;;9.96;100.00;103002.69;2608390;36;20409;-69
2021/11/23 11:25:00;;;;;;;5.10;1.58;;;;;;;9.75;100.00;103006.50;2607754;36;20713;-70
2021/11/23 11:27:45;;;;;;;6.47;2.30;;;;;;;9.84;100.00;103005.16;2608138;36;20042;-70
2021/11/23 11:30:26;;;;;;;6.18;1.33;;;;;;;9.75;100.00;103007.34;2608160;36;20435;-70
2021/11/23 11:33:00;;;;;;;5.00;1.63;;;;;;;9.84;100.00;103010.53;2608934;36;20123;-69
2021/11/23 11:35:54;;;;;;;4.70;1.50;;;;;;;9.73;100.00;103006.56;2608952;36;20042;-69
2021/11/23 11:38:44;;;;;;;4.82;1.33;;;;;;;9.60;100.00;102997.41;2608093;31;20038;-68
2021/11/23 11:41:32;;;;;;;;;;;;;;;9.66;100.00;102997.06;2608279;36;20056;-69
2021/11/23 11:44:19;;;;;;;12.05;1.17;;;;;;;9.57;100.00;103002.91;2608297;36;19950;-70
2021/11/23 11:49:54;;;;;;;2.85;1.45;;;;;;;9.71;100.00;102997.69;2606714;36;20157;-69
2021/11/23 11:52:24;;;;;;;2.85;0.93;;;;;;;9.69;100.00;102991.53;2607398;36;20095;-69
2021/11/23 11:55:32;;;;;;;5.00;1.38;;;;;;;9.64;100.00;102993.56;2607020;36;20723;-67
2021/11/23 12:02:09;;;;;;;;;;;;;;;;;;;;;
2021/11/23 12:10:55;;;;;;;5.10;1.00;;;;;;;9.52;100.00;102994.22;2605888;36;20030;-69
2021/11/23 12:32:30;;;;;;;8.75;1.40;;;;;;;10.16;100.00;102965.81;2605185;36;20014;-69
2021/11/23 12:38:55;;;;;;;5.30;1.55;;;;;;;9.81;100.00;102958.63;2607319;36;20053;-69
2021/11/23 12:41:28;;;;;;;8.45;1.45;;;;;;;9.64;100.00;102966.69;2607997;36;20096;-70
2021/11/23 12:55:39;;;;;;;4.43;1.30;;;;;;;9.40;100.00;102964.28;2605503;36;20591;-70
2021/11/23 13:01:31;;;;;;;4.03;1.23;;;;;;;9.29;100.00;102961.28;2605984;36;20019;-69
2021/11/23 13:04:09;;;;;;;4.53;1.20;;;;;;;9.17;100.00;102969.94;2606163;36;20030;-69
2021/11/23 13:09:53;;;;;;;4.43;0.93;;;;;;;9.20;100.00;102969.78;2606038;36;20018;-69
2021/11/23 13:12:25;;;;;;;4.93;1.30;;;;;;;9.22;100.00;102971.47;2606841;36;20042;-68
2021/11/23 13:15:05;;;;;;;2.85;0.90;;;;;;;9.31;100.00;102970.13;2607105;36;20151;-70
2021/11/23 13:17:50;;;;;;;5.10;1.30;;;;;;;9.39;100.00;102962.56;2606949;36;20063;-70
2021/11/23 13:20:25;;;;;;;5.60;1.10;;;;;;;9.44;100.00;102955.13;2609266;36;20544;-68
2021/11/23 13:22:58;;;;;;;4.10;0.95;;;;;;;9.50;100.00;102955.78;2606718;36;20586;-68
2021/11/23 13:25:31;;;;;;;5.00;1.25;;;;;;;9.38;100.00;102950.06;2606601;36;20121;-71
2021/11/23 13:28:00;;;;;;;4.88;1.23;;;;;;;9.39;100.00;102945.56;2607456;36;20192;-70
2021/11/23 13:31:01;;;;;;;6.33;1.17;;;;;;;9.24;100.00;102949.88;2607354;36;20137;-69
2021/11/23 16:02:47;;;;;;;4.25;1.80;;;;;;;7.24;100.00;102947.19;2625547;36;20544;-71
2021/11/23 16:05:19;;;;;;;6.60;1.60;;;;;;;7.11;100.00;102953.97;2608646;36;20082;-70
2021/11/23 16:07:47;;;;;;;4.85;1.90;;;;;;;7.05;100.00;102946.19;2608539;36;20443;-69
2021/11/23 16:12:40;;;;;;;4.30;2.40;;;;;;;6.87;100.00;102947.81;2606267;36;20065;-69
2021/11/23 16:15:10;;;;;;;3.30;1.95;;;;;;;6.71;100.00;102953.75;2606959;36;20299;-70
2021/11/23 16:23:10;;;;;;;3.40;2.40;;;;;;;6.38;100.00;102956.78;2606620;36;20069;-68
2021/11/23 16:50:27;;;;;;;6.95;4.45;;;;;;;6.36;100.00;102963.13;2611572;36;20061;-68
2021/11/23 17:08:50;;;;;;;10.85;6.40;;;;;;;6.39;100.00;102963.00;2608716;36;20125;-68
2021/11/23 17:24:25;;;;;;;11.25;7.10;;;;;;;6.66;100.00;102961.97;2641433;36;20034;-70
2021/11/23 17:26:57;;;;;;;10.13;6.53;;;;;;;6.72;100.00;102962.66;2604374;36;20051;-69
2021/11/23 17:29:28;;;;;;;9.70;6.55;;;;;;;6.76;100.00;102956.28;2612339;36;20042;-70
2021/11/23 17:31:57;;;;;;;11.30;6.65;;;;;;;6.77;100.00;102960.69;2647342;36;20137;-69
2021/11/23 17:34:26;;;;;;;11.30;6.70;;;;;;;6.74;100.00;102956.31;2607226;36;20081;-68
2021/11/23 17:37:06;;;;;;;;;;;;;;;6.74;100.00;102958.13;2606847;36;20451;-69
2021/11/23 17:39:35;;;;;;;9.75;6.85;;;;;;;6.69;100.00;102960.13;2607985;36;20372;-69
2021/11/23 17:42:10;;;;;;;;;;;;;;;6.54;100.00;102951.75;2606666;36;20570;-70
2021/11/23 17:44:39;;;;;;;10.40;6.68;;;;;;;6.62;100.00;102952.31;2606503;36;20046;-70
2021/11/23 18:05:57;;;;;;;8.82;6.78;;;;;;;6.75;100.00;102941.13;2607325;39;20427;-69
2021/11/23 18:17:45;;;;;;;10.70;7.63;;;;;;;6.80;100.00;102956.09;2606653;36;20023;-69
2021/11/23 18:20:14;;;;;;;10.50;8.23;;;;;;;6.78;100.00;102954.41;2621829;36;20035;-69
2021/11/23 18:23:10;;;;;;;12.35;8.15;;;;;;;6.79;100.00;102950.81;2606670;31;20030;-69
2021/11/23 18:29:28;;;;;;;17.50;8.02;;;;;;;6.58;100.00;102947.13;2605625;54;20058;-70
2021/11/23 18:31:57;;;;;;;10.20;8.10;;;;;;;6.43;100.00;102940.56;2598781;36;20069;-69
2021/11/23 18:34:26;;;;;;;12.23;8.10;;;;;;;6.31;100.00;102937.41;2598531;36;20034;-70
2021/11/23 18:36:57;;;;;;;12.50;7.70;;;;;;;6.21;100.00;102936.00;2604672;36;20441;-70
2021/11/23 18:42:29;;;;;;;9.88;7.10;;;;;;;6.16;100.00;102934.47;2608186;31;20030;-70
2021/11/23 18:44:57;;;;;;;;;;;;;;;6.05;100.00;102929.47;2608651;36;20038;-70
2021/11/23 18:47:33;;;;;;;11.13;6.55;;;;;;;5.92;100.00;102927.22;2607940;36;19953;-70
2021/11/23 18:50:03;;;;;;;8.98;6.47;;;;;;;5.81;100.00;102940.09;2608252;36;20037;-70
2021/11/23 18:52:31;;;;;;;8.45;7.20;;;;;;;5.73;100.00;102927.00;2607426;36;20459;-70
2021/11/23 18:55:13;;;;;;;8.20;6.93;;;;;;;5.58;100.00;102923.06;2608416;36;20093;-70
2021/11/23 18:57:43;;;;;;;10.57;8.30;;;;;;;5.46;100.00;102922.59;2607197;36;20045;-70
2021/11/23 19:00:17;;;;;;;10.90;7.85;;;;;;;5.48;100.00;102921.63;2607626;36;20057;-69
2021/11/23 19:03:06;;;;;;;9.40;7.68;;;;;;;5.36;100.00;102927.38;2608316;36;20643;-69
2021/11/23 19:08:39;;;;;;;18.67;8.88;;;;;;;5.22;100.00;102927.84;2618872;36;20031;-69
2021/11/23 19:11:10;;;;;;;19.13;9.13;;;;;;;5.02;100.00;102937.38;2608000;36;20062;-69
2021/11/23 19:13:39;;;;;;;11.38;8.15;;;;;;;4.91;100.00;102936.84;2606220;31;20121;-69
2021/11/23 19:16:20;;;;;;;10.32;8.63;;;;;;;4.81;100.00;102940.72;2597911;36;20034;-70
2021/11/23 19:18:48;;;;;;;15.65;10.00;;;;;;;4.78;100.00;102928.31;2608297;36;20622;-71
2021/11/23 19:21:16;;;;;;;13.73;9.68;;;;;;;4.69;100.00;102931.28;2603959;36;20509;-70
2021/11/23 20:44:55;;;;;;;41.28;26.20;;;;;;;4.33;100.00;102913.69;2608481;36;20620;-69
2021/11/23 20:47:30;;;;;;;39.17;25.27;;;;;;;4.37;100.00;102910.00;2606371;36;20187;-67
2021/11/23 20:49:58;;;;;;;34.25;23.13;;;;;;;4.55;100.00;102913.91;2603500;36;20061;-69
2021/11/23 20:52:26;;;;;;;38.25;25.88;;;;;;;4.63;100.00;102910.16;2609392;36;20059;-69
2021/11/23 20:58:49;;;;;;;46.03;28.60;;;;;;;4.37;100.00;102912.69;2609047;31;20034;-70
2021/11/23 21:06:46;;;;;;;60.17;36.50;;;;;;;4.08;100.00;102912.63;2628133;36;20027;-68
2021/11/23 21:09:17;;;;;;;58.22;36.90;;;;;;;4.04;100.00;102907.38;2611962;36;20030;-68
2021/11/23 21:23:22;;;;;;;47.20;32.15;;;;;;;3.90;100.00;102892.69;2607531;31;20058;-68
2021/11/23 21:28:31;;;;;;;45.20;31.75;;;;;;;4.04;100.00;102886.06;2610630;36;20041;-68
2021/11/23 21:31:04;;;;;;;43.50;28.42;;;;;;;3.98;100.00;102890.72;2610670;36;20066;-68
2021/11/23 21:33:32;;;;;;;48.65;34.13;;;;;;;3.95;100.00;102886.34;2610278;36;20563;-70
2021/11/23 21:36:09;;;;;;;48.03;33.10;;;;;;;3.87;100.00;102877.66;2607433;31;20549;-68
2021/11/23 21:38:46;;;;;;;52.38;33.50;;;;;;;3.88;100.00;102875.91;2611077;36;20034;-68
2021/11/23 21:41:26;;;;;;;48.40;32.47;;;;;;;3.90;100.00;102882.94;2610074;36;20093;-67
2021/11/23 21:43:56;;;;;;;45.78;31.73;;;;;;;3.95;100.00;102875.69;2610771;36;20167;-69
2021/11/23 21:46:29;;;;;;;52.88;33.10;;;;;;;4.00;100.00;102873.75;2608430;36;20047;-69
2021/11/23 21:48:58;;;;;;;52.60;34.88;;;;;;;4.01;100.00;102874.63;2611267;36;20034;-69
2021/11/23 21:51:27;;;;;;;49.47;32.08;;;;;;;4.08;100.00;102872.66;2609772;36;20054;-69
2021/11/23 21:53:56;;;;;;;50.60;30.52;;;;;;;4.09;100.00;102877.94;2609509;36;20455;-69
2021/11/23 21:56:55;;;;;;;46.55;29.65;;;;;;;4.18;100.00;102877.69;2609850;36;20038;-69